Terminal Aerodrome Forecast
Issued by NWS

Home | Current Version | Previous Version | Graphics & Text | Print | Product List | Glossary On
Versions: 1 2 3 4 5 6 7 8 9 10 11 12 13 14 15 16
981
FTUS43 KABR 242339
TAFMBG
TAF
KMBG 242339Z 2500/2524 13015G24KT P6SM SCT250
     FM250200 10011KT P6SM SCT250
     FM250700 08007KT P6SM SCT250
     FM251000 01010KT P6SM SCT250=

USA.gov is the U.S. government's official web portal to all federal, state and local government web resources and services.